Terminal Aerodrome Forecast
Issued by NWS

Home | Current Version | Previous Version | Text Only | Print | Product List | Glossary On
Versions: 1 2 3 4 5 6 7 8 9 10 11 12 13 14 15 16
199
FTUS44 KTSA 220520
TAFMLC
TAF
KMLC 220520Z 2206/2306 15005KT P6SM FEW250
     FM221400 19010KT P6SM FEW020
     FM221800 17010G16KT P6SM SCT045
     FM230100 16006KT P6SM FEW040 FEW250=

USA.gov is the U.S. government's official web portal to all federal, state and local government web resources and services.